createdAt,value
2022-10-08T00:01:44.486Z,100756.53
2022-10-08T00:06:04.539Z,100765.78
2022-10-08T00:10:08.021Z,100768.25
2022-10-08T00:14:09.688Z,100766.53
2022-10-08T00:18:11.186Z,100769.31
2022-10-08T00:22:13.229Z,100773.78
2022-10-08T00:26:17.219Z,100767.88
2022-10-08T00:30:18.946Z,100759.25
2022-10-08T00:34:23.228Z,100762.59
2022-10-08T00:38:24.700Z,100769.38
2022-10-08T00:42:26.380Z,100769.38
2022-10-08T00:46:45.872Z,100763.38
2022-10-08T00:50:47.824Z,100754.84
2022-10-08T00:54:51.619Z,100763.56
2022-10-08T00:58:53.558Z,100761.91
2022-10-08T01:02:55.195Z,100765.41
2022-10-08T01:07:05.434Z,100768.03
2022-10-08T01:11:14.110Z,100756.03
2022-10-08T01:15:15.573Z,100755.06
2022-10-08T01:19:55.072Z,100753.28
2022-10-08T01:24:08.537Z,100758.38
2022-10-08T01:28:15.746Z,100754.94
2022-10-08T01:32:22.155Z,100767.97
2022-10-08T01:36:25.732Z,100757.59
2022-10-08T01:40:31.812Z,100765.41
2022-10-08T01:44:42.101Z,100752.47
2022-10-08T01:48:44.425Z,100770.47
2022-10-08T01:52:54.553Z,100762.56
2022-10-08T01:56:58.112Z,100768.41
2022-10-08T02:01:08.651Z,100767.44
2022-10-08T02:05:11.704Z,100764.91
2022-10-08T02:09:14.235Z,100765.78
2022-10-08T02:13:15.851Z,100768.19
2022-10-08T02:17:51.126Z,100758.78
2022-10-08T02:21:55.959Z,100771.66
2022-10-08T02:26:19.406Z,100781.81
2022-10-08T02:30:22.242Z,100776.50
2022-10-08T02:34:41.424Z,100776.47
2022-10-08T02:38:53.602Z,100780.66
2022-10-08T02:43:01.418Z,100781.56
2022-10-08T02:47:06.638Z,100786.75
2022-10-08T02:51:12.963Z,100781.50
2022-10-08T02:55:23.770Z,100783.13
2022-10-08T02:59:25.344Z,100793.25
2022-10-08T03:03:33.416Z,100789.78
2022-10-08T03:07:35.128Z,100802.69
2022-10-08T03:11:37.081Z,100807.22
2022-10-08T03:15:41.120Z,100806.41
2022-10-08T03:19:42.588Z,100803.69
2022-10-08T03:23:44.172Z,100804.41
2022-10-08T03:27:45.702Z,100816.22
2022-10-08T03:31:48.534Z,100819.56
2022-10-08T03:35:50.091Z,100826.16
2022-10-08T03:39:51.651Z,100826.84
2022-10-08T03:43:53.138Z,100831.13
2022-10-08T03:47:54.624Z,100844.22
2022-10-08T03:51:56.139Z,100846.00
2022-10-08T03:56:08.034Z,100845.66
2022-10-08T04:00:10.065Z,100847.13
2022-10-08T04:04:11.575Z,100846.91
2022-10-08T04:08:13.104Z,100849.97
2022-10-08T04:12:14.645Z,100858.34
2022-10-08T04:16:19.650Z,100862.50
2022-10-08T04:20:21.161Z,100875.31
2022-10-08T04:24:22.742Z,100867.47
2022-10-08T04:28:24.644Z,100865.00
2022-10-08T04:32:26.197Z,100867.53
2022-10-08T04:36:27.698Z,100864.88
2022-10-08T04:40:29.220Z,100873.31
2022-10-08T04:44:30.748Z,100876.63
2022-10-08T04:48:32.266Z,100877.25
2022-10-08T04:52:33.785Z,100873.72
2022-10-08T04:56:36.457Z,100870.06
2022-10-08T05:00:37.919Z,100873.25
2022-10-08T05:04:39.446Z,100880.03
2022-10-08T05:08:41.089Z,100877.31
2022-10-08T05:12:42.585Z,100887.63
2022-10-08T05:16:44.225Z,100897.56
2022-10-08T05:20:45.753Z,100889.69
2022-10-08T05:24:47.261Z,100896.44
2022-10-08T05:28:48.854Z,100898.81
2022-10-08T05:32:50.505Z,100906.59
2022-10-08T05:36:52.048Z,100910.88
2022-10-08T05:40:53.545Z,100915.97
2022-10-08T05:44:55.114Z,100911.66
2022-10-08T05:48:59.112Z,100915.97
2022-10-08T05:53:00.621Z,100932.16
2022-10-08T05:57:02.163Z,100942.38
2022-10-08T06:01:06.128Z,100933.81
2022-10-08T06:05:07.997Z,100940.69
2022-10-08T06:09:13.395Z,100948.50
2022-10-08T06:13:14.884Z,100959.63
2022-10-08T06:17:16.486Z,100957.81
2022-10-08T06:21:24.079Z,100968.91
2022-10-08T06:25:25.580Z,100959.41
2022-10-08T06:29:27.161Z,100967.91
2022-10-08T06:33:29.125Z,100970.34
2022-10-08T06:37:30.607Z,100972.72
2022-10-08T06:41:35.367Z,100979.47
2022-10-08T06:45:40.902Z,100984.00
2022-10-08T06:49:42.466Z,100982.38
2022-10-08T06:53:44.972Z,100990.19
2022-10-08T06:57:46.496Z,100997.03
2022-10-08T07:01:48.034Z,101006.41
2022-10-08T07:05:49.563Z,101005.59
2022-10-08T07:09:51.065Z,101010.53
2022-10-08T07:13:54.281Z,101007.78
2022-10-08T07:17:55.751Z,101021.47
2022-10-08T07:22:01.179Z,101014.56
2022-10-08T07:26:06.575Z,101027.41
2022-10-08T07:30:08.420Z,101041.91
2022-10-08T07:34:13.535Z,101039.47
2022-10-08T07:38:18.384Z,101031.97
2022-10-08T07:42:19.981Z,101036.59
2022-10-08T07:46:21.998Z,101035.06
2022-10-08T07:50:24.406Z,101042.91
2022-10-08T07:54:25.898Z,101045.53
2022-10-08T07:58:27.391Z,101040.41
2022-10-08T08:02:28.983Z,101049.13
2022-10-08T08:06:31.904Z,101048.47
2022-10-08T08:10:33.438Z,101049.72
2022-10-08T08:14:35.071Z,101044.88
2022-10-08T08:18:38.963Z,101052.13
2022-10-08T08:22:40.454Z,101069.72
2022-10-08T08:26:43.301Z,101070.16
2022-10-08T08:30:45.034Z,101076.56
2022-10-08T08:34:46.972Z,101078.66
2022-10-08T08:38:48.540Z,101078.19
2022-10-08T08:42:54.694Z,101082.75
2022-10-08T08:47:07.461Z,101077.84
2022-10-08T08:51:09.066Z,101079.88
2022-10-08T08:55:23.464Z,101083.69
2022-10-08T08:59:41.405Z,101078.69
2022-10-08T09:03:45.877Z,101082.34
2022-10-08T09:07:55.910Z,101079.16
2022-10-08T09:11:58.100Z,101072.53
2022-10-08T09:15:59.838Z,101068.44
2022-10-08T09:20:01.758Z,101075.47
2022-10-08T09:24:03.406Z,101081.84
2022-10-08T09:28:05.090Z,101083.72
2022-10-08T09:32:14.517Z,101078.59
2022-10-08T09:36:29.352Z,101089.41
2022-10-08T09:40:30.954Z,101097.44
2022-10-08T09:44:44.394Z,101096.00
2022-10-08T09:48:45.934Z,101093.63
2022-10-08T09:52:50.451Z,101093.06
2022-10-08T09:56:55.437Z,101099.22
2022-10-08T10:01:03.809Z,101091.63
2022-10-08T10:05:07.940Z,101094.41
2022-10-08T10:09:28.135Z,101093.72
2022-10-08T10:13:37.743Z,101096.34
2022-10-08T10:17:43.417Z,101084.59
2022-10-08T10:21:58.025Z,101089.94
2022-10-08T10:26:23.763Z,101079.91
2022-10-08T10:30:25.992Z,101078.75
2022-10-08T10:34:30.341Z,101081.03
2022-10-08T10:38:40.756Z,101070.03
2022-10-08T10:42:56.022Z,101075.56
2022-10-08T10:47:00.518Z,101085.19
2022-10-08T10:51:26.503Z,101079.66
2022-10-08T10:55:36.894Z,101088.00
2022-10-08T11:00:13.649Z,101084.59
2022-10-08T11:04:39.225Z,101080.34
2022-10-08T11:08:51.555Z,101089.94
2022-10-08T11:13:21.852Z,101089.13
2022-10-08T11:17:30.119Z,101081.28
2022-10-08T11:21:52.735Z,101083.06
2022-10-08T11:26:21.442Z,101082.25
2022-10-08T11:30:32.916Z,101085.56
2022-10-08T11:34:36.875Z,101088.75
2022-10-08T11:38:44.228Z,101094.38
2022-10-08T11:42:48.548Z,101093.41
2022-10-08T11:46:50.673Z,101093.34
2022-10-08T11:50:52.292Z,101089.94
2022-10-08T11:54:56.034Z,101100.53
2022-10-08T11:59:01.978Z,101093.66
2022-10-08T12:03:17.193Z,101090.03
2022-10-08T12:07:27.820Z,101099.84
2022-10-08T12:11:32.275Z,101101.78
2022-10-08T12:15:35.378Z,101115.31
2022-10-08T12:19:44.344Z,101111.78
2022-10-08T12:23:46.268Z,101114.25
2022-10-08T12:27:47.791Z,101112.78
2022-10-08T12:32:00.814Z,101106.53
2022-10-08T12:36:24.377Z,101112.25
2022-10-08T12:40:54.214Z,101118.44
2022-10-08T12:44:58.628Z,101123.63
2022-10-08T12:49:08.992Z,101119.31
2022-10-08T12:53:16.175Z,101116.03
2022-10-08T12:57:24.257Z,101110.28
2022-10-08T13:01:26.348Z,101106.47
2022-10-08T13:05:34.093Z,101109.56
2022-10-08T13:09:35.823Z,101108.88
2022-10-08T13:13:40.362Z,101112.53
2022-10-08T13:17:41.874Z,101115.97
2022-10-08T13:21:58.222Z,101107.53
2022-10-08T13:26:00.709Z,101102.47
2022-10-08T13:30:22.114Z,101104.38
2022-10-08T13:34:26.314Z,101106.16
2022-10-08T13:38:32.073Z,101116.09
2022-10-08T13:42:36.634Z,101116.59
2022-10-08T13:46:38.237Z,101106.16
2022-10-08T13:50:48.653Z,101112.34
2022-10-08T13:54:56.085Z,101114.44
2022-10-08T13:58:57.609Z,101114.00
2022-10-08T14:02:59.525Z,101120.97
2022-10-08T14:07:02.499Z,101121.56
2022-10-08T14:11:04.079Z,101112.84
2022-10-08T14:15:06.542Z,101118.78
2022-10-08T14:19:11.991Z,101120.56
2022-10-08T14:23:14.167Z,101122.97
2022-10-08T14:27:15.688Z,101125.50
2022-10-08T14:31:17.453Z,101122.41
2022-10-08T14:35:19.671Z,101116.34
2022-10-08T14:39:22.472Z,101117.13
2022-10-08T14:43:27.551Z,101119.47
2022-10-08T14:47:29.312Z,101115.09
2022-10-08T14:51:38.144Z,101118.56
2022-10-08T14:55:54.707Z,101110.50
2022-10-08T15:00:01.346Z,101109.31
2022-10-08T15:04:04.744Z,101116.81
2022-10-08T15:08:06.259Z,101112.38
2022-10-08T15:12:08.424Z,101110.16
2022-10-08T15:16:12.289Z,101110.34
2022-10-08T15:20:14.404Z,101105.34
2022-10-08T15:24:16.165Z,101095.06
2022-10-08T15:28:17.710Z,101109.44
2022-10-08T15:32:19.257Z,101104.09
2022-10-08T15:36:26.914Z,101104.06
2022-10-08T15:40:31.792Z,101109.94
2022-10-08T15:44:33.340Z,101118.34
2022-10-08T15:48:34.814Z,101113.91
2022-10-08T15:52:36.451Z,101119.06
2022-10-08T15:56:38.218Z,101113.66
2022-10-08T16:00:39.758Z,101107.28
2022-10-08T16:04:41.306Z,101120.91
2022-10-08T16:08:44.887Z,101131.88
2022-10-08T16:12:46.787Z,101127.25
2022-10-08T16:16:49.551Z,101138.19
2022-10-08T16:20:52.797Z,101137.06
2022-10-08T16:24:54.441Z,101142.81
2022-10-08T16:29:00.952Z,101151.19
2022-10-08T16:33:02.570Z,101152.69
2022-10-08T16:37:04.897Z,101159.28
2022-10-08T16:41:21.018Z,101165.06
2022-10-08T16:45:22.641Z,101171.66
2022-10-08T16:49:30.325Z,101177.50
2022-10-08T16:53:31.880Z,101180.69
2022-10-08T16:57:34.742Z,101189.97
2022-10-08T17:01:38.339Z,101197.41
2022-10-08T17:05:41.805Z,101199.69
2022-10-08T17:09:43.331Z,101207.13
2022-10-08T17:13:47.217Z,101211.16
2022-10-08T17:17:52.069Z,101223.66
2022-10-08T17:21:56.881Z,101228.56
2022-10-08T17:25:59.368Z,101231.72
2022-10-08T17:30:00.906Z,101236.69
2022-10-08T17:34:04.009Z,101240.72
2022-10-08T17:38:05.527Z,101252.53
2022-10-08T17:42:07.469Z,101265.31
2022-10-08T17:46:17.596Z,101266.69
2022-10-08T17:50:19.356Z,101271.59
2022-10-08T17:54:22.551Z,101276.53
2022-10-08T17:58:24.065Z,101280.69
2022-10-08T18:02:25.851Z,101290.88
2022-10-08T18:06:28.199Z,101293.25
2022-10-08T18:10:29.730Z,101298.16
2022-10-08T18:14:31.453Z,101305.72
2022-10-08T18:18:33.137Z,101312.97
2022-10-08T18:22:34.700Z,101311.78
2022-10-08T18:26:37.028Z,101315.88
2022-10-08T18:30:38.953Z,101311.31
2022-10-08T18:34:40.496Z,101330.09
2022-10-08T18:38:43.952Z,101328.09
2022-10-08T18:42:45.803Z,101333.94
2022-10-08T18:46:48.016Z,101338.03
2022-10-08T18:50:49.793Z,101335.25
2022-10-08T18:54:51.320Z,101343.66
2022-10-08T18:58:53.068Z,101343.38
2022-10-08T19:02:57.101Z,101353.41
2022-10-08T19:06:58.700Z,101373.59
2022-10-08T19:11:08.612Z,101371.25
2022-10-08T19:15:10.367Z,101369.38
2022-10-08T19:19:17.918Z,101375.28
2022-10-08T19:23:19.521Z,101382.66
2022-10-08T19:27:21.066Z,101378.09
2022-10-08T19:31:31.217Z,101384.03
2022-10-08T19:35:32.819Z,101379.75
2022-10-08T19:39:34.469Z,101393.41
2022-10-08T19:43:36.140Z,101394.25
2022-10-08T19:47:37.822Z,101404.47
2022-10-08T19:51:39.710Z,101403.59
2022-10-08T19:55:41.305Z,101418.03
2022-10-08T19:59:42.951Z,101431.63
2022-10-08T20:03:44.763Z,101431.22
2022-10-08T20:07:46.380Z,101438.97
2022-10-08T20:11:47.935Z,101439.22
2022-10-08T20:15:51.431Z,101438.34
2022-10-08T20:19:58.554Z,101446.00
2022-10-08T20:24:11.782Z,101448.25
2022-10-08T20:28:13.313Z,101439.22
2022-10-08T20:32:14.851Z,101439.84
2022-10-08T20:36:17.360Z,101445.53
2022-10-08T20:40:18.890Z,101447.03
2022-10-08T20:44:20.616Z,101453.00
2022-10-08T20:48:22.252Z,101460.56
2022-10-08T20:52:23.778Z,101455.44
2022-10-08T20:56:26.257Z,101464.75
2022-10-08T21:00:28.262Z,101465.38
2022-10-08T21:04:30.061Z,101474.66
2022-10-08T21:08:32.326Z,101475.31
2022-10-08T21:12:34.136Z,101479.53
2022-10-08T21:16:38.466Z,101477.63
2022-10-08T21:20:40.088Z,101481.06
2022-10-08T21:24:41.640Z,101481.81
2022-10-08T21:28:45.746Z,101478.97
2022-10-08T21:32:48.752Z,101487.66
2022-10-08T21:36:50.521Z,101490.16
2022-10-08T21:40:57.952Z,101496.25
2022-10-08T21:44:59.679Z,101493.59
2022-10-08T21:49:04.147Z,101492.78
2022-10-08T21:53:05.693Z,101487.66
2022-10-08T21:57:07.335Z,101496.91
2022-10-08T22:01:20.147Z,101499.00
2022-10-08T22:05:22.148Z,101497.25
2022-10-08T22:09:29.972Z,101499.66
2022-10-08T22:13:32.009Z,101491.09
2022-10-08T22:17:33.489Z,101499.31
2022-10-08T22:21:35.374Z,101515.81
2022-10-08T22:25:36.927Z,101508.72
2022-10-08T22:29:38.459Z,101502.94
2022-10-08T22:33:40.189Z,101499.50
2022-10-08T22:37:41.706Z,101510.34
2022-10-08T22:41:43.248Z,101502.41
2022-10-08T22:45:44.893Z,101494.72
2022-10-08T22:49:46.742Z,101496.13
2022-10-08T22:53:48.684Z,101496.91
2022-10-08T22:57:50.198Z,101493.34
2022-10-08T23:01:51.768Z,101487.97
2022-10-08T23:06:08.826Z,101486.09
2022-10-08T23:10:10.342Z,101490.97
2022-10-08T23:14:11.836Z,101492.53
2022-10-08T23:18:13.406Z,101494.13
2022-10-08T23:22:14.956Z,101481.00
2022-10-08T23:26:17.312Z,101476.06
2022-10-08T23:30:41.702Z,101481.06
2022-10-08T23:34:40.295Z,101474.94
2022-10-08T23:38:42.045Z,101478.19
2022-10-08T23:42:43.508Z,101483.16
2022-10-08T23:46:45.012Z,101472.69
2022-10-08T23:50:53.556Z,101481.09
2022-10-08T23:54:55.109Z,101481.75
2022-10-08T23:58:57.800Z,101481.66
